sensor_id;sensor_type;location;lat;lon;timestamp;pressure;altitude;pressure_sealevel;temperature;humidity
66627;BME280;53498;50.422;14.912;2023-03-25T00:01:11;98126.16;;;8.63;100.00
66627;BME280;53498;50.422;14.912;2023-03-25T00:03:39;98127.91;;;8.62;100.00
66627;BME280;53498;50.422;14.912;2023-03-25T00:06:12;98131.34;;;8.61;100.00
66627;BME280;53498;50.422;14.912;2023-03-25T00:08:38;98121.03;;;8.53;100.00
66627;BME280;53498;50.422;14.912;2023-03-25T00:11:04;98118.44;;;8.52;100.00
66627;BME280;53498;50.422;14.912;2023-03-25T00:13:31;98120.22;;;8.50;100.00
66627;BME280;53498;50.422;14.912;2023-03-25T00:16:01;98119.34;;;8.52;100.00
66627;BME280;53498;50.422;14.912;2023-03-25T00:18:29;98112.44;;;8.48;100.00
66627;BME280;53498;50.422;14.912;2023-03-25T00:20:59;98116.75;;;8.48;100.00
66627;BME280;53498;50.422;14.912;2023-03-25T00:23:30;98104.69;;;8.44;100.00
66627;BME280;53498;50.422;14.912;2023-03-25T00:25:56;98103.84;;;8.43;100.00
66627;BME280;53498;50.422;14.912;2023-03-25T00:28:27;98108.16;;;8.40;100.00
66627;BME280;53498;50.422;14.912;2023-03-25T00:30:58;98101.31;;;8.28;100.00
66627;BME280;53498;50.422;14.912;2023-03-25T00:33:25;98104.75;;;8.30;100.00
66627;BME280;53498;50.422;14.912;2023-03-25T00:35:51;98106.47;;;8.34;100.00
66627;BME280;53498;50.422;14.912;2023-03-25T00:38:19;98100.41;;;8.35;100.00
66627;BME280;53498;50.422;14.912;2023-03-25T00:40:45;98096.06;;;8.35;100.00
66627;BME280;53498;50.422;14.912;2023-03-25T00:43:13;98105.59;;;8.32;100.00
66627;BME280;53498;50.422;14.912;2023-03-25T00:45:39;98102.16;;;8.31;100.00
66627;BME280;53498;50.422;14.912;2023-03-25T00:48:04;98106.44;;;8.35;100.00
66627;BME280;53498;50.422;14.912;2023-03-25T00:50:30;98098.69;;;8.34;100.00
66627;BME280;53498;50.422;14.912;2023-03-25T00:52:55;98102.97;;;8.40;100.00
66627;BME280;53498;50.422;14.912;2023-03-25T00:55:21;98095.22;;;8.40;100.00
66627;BME280;53498;50.422;14.912;2023-03-25T00:57:47;98092.63;;;8.38;100.00
66627;BME280;53498;50.422;14.912;2023-03-25T01:00:15;98090.00;;;8.37;100.00
66627;BME280;53498;50.422;14.912;2023-03-25T01:02:42;98090.88;;;8.45;100.00
66627;BME280;53498;50.422;14.912;2023-03-25T01:05:08;98091.75;;;8.39;100.00
66627;BME280;53498;50.422;14.912;2023-03-25T01:07:39;98090.06;;;8.29;100.00
66627;BME280;53498;50.422;14.912;2023-03-25T01:10:06;98093.56;;;8.25;100.00
66627;BME280;53498;50.422;14.912;2023-03-25T01:12:32;98095.34;;;8.17;100.00
66627;BME280;53498;50.422;14.912;2023-03-25T01:14:58;98088.50;;;8.06;100.00
66627;BME280;53498;50.422;14.912;2023-03-25T01:17:27;98086.78;;;8.08;100.00
66627;BME280;53498;50.422;14.912;2023-03-25T01:19:52;98095.44;;;8.03;100.00
66627;BME280;53498;50.422;14.912;2023-03-25T01:22:18;98079.91;;;7.98;100.00
66627;BME280;53498;50.422;14.912;2023-03-25T01:24:43;98078.16;;;8.00;100.00
66627;BME280;53498;50.422;14.912;2023-03-25T01:27:09;98082.47;;;8.01;100.00
66627;BME280;53498;50.422;14.912;2023-03-25T01:29:35;98086.84;;;7.93;100.00
66627;BME280;53498;50.422;14.912;2023-03-25T01:32:01;98081.63;;;7.99;100.00
66627;BME280;53498;50.422;14.912;2023-03-25T01:34:26;98078.16;;;8.03;100.00
66627;BME280;53498;50.422;14.912;2023-03-25T01:37:03;98071.22;;;8.08;100.00
66627;BME280;53498;50.422;14.912;2023-03-25T01:39:28;98072.03;;;8.17;100.00
66627;BME280;53498;50.422;14.912;2023-03-25T01:41:54;98071.13;;;8.21;100.00
66627;BME280;53498;50.422;14.912;2023-03-25T01:46:47;98085.84;;;8.14;100.00
66627;BME280;53498;50.422;14.912;2023-03-25T01:49:20;98064.22;;;8.20;100.00
66627;BME280;53498;50.422;14.912;2023-03-25T01:51:50;98063.38;;;8.19;100.00
66627;BME280;53498;50.422;14.912;2023-03-25T01:54:18;98060.72;;;8.27;100.00
66627;BME280;53498;50.422;14.912;2023-03-25T01:56:46;98058.19;;;8.18;100.00
66627;BME280;53498;50.422;14.912;2023-03-25T01:59:16;98072.03;;;8.14;100.00
66627;BME280;53498;50.422;14.912;2023-03-25T02:01:45;98057.41;;;8.09;100.00
66627;BME280;53498;50.422;14.912;2023-03-25T02:04:12;98059.94;;;8.14;100.00
66627;BME280;53498;50.422;14.912;2023-03-25T02:06:45;98061.72;;;8.09;100.00
66627;BME280;53498;50.422;14.912;2023-03-25T02:09:17;98059.16;;;8.04;100.00
66627;BME280;53498;50.422;14.912;2023-03-25T02:11:43;98057.41;;;8.06;100.00
66627;BME280;53498;50.422;14.912;2023-03-25T02:14:12;98060.91;;;8.02;100.00
66627;BME280;53498;50.422;14.912;2023-03-25T02:19:56;98053.16;;;7.99;100.00
66627;BME280;53498;50.422;14.912;2023-03-25T02:23:01;98052.25;;;8.03;100.00
66627;BME280;53498;50.422;14.912;2023-03-25T02:42:51;98059.22;;;7.89;100.00
66627;BME280;53498;50.422;14.912;2023-03-25T02:45:29;98063.56;;;7.88;100.00
66627;BME280;53498;50.422;14.912;2023-03-25T02:48:02;98059.25;;;7.91;100.00
66627;BME280;53498;50.422;14.912;2023-03-25T02:50:34;98059.25;;;7.83;100.00
66627;BME280;53498;50.422;14.912;2023-03-25T02:53:04;98064.44;;;7.83;100.00
66627;BME280;53498;50.422;14.912;2023-03-25T02:55:33;98057.59;;;7.77;100.00
66627;BME280;53498;50.422;14.912;2023-03-25T02:58:01;98056.69;;;7.77;100.00
66627;BME280;53498;50.422;14.912;2023-03-25T03:00:30;98062.81;;;7.68;100.00
66627;BME280;53498;50.422;14.912;2023-03-25T03:02:58;98064.53;;;7.66;100.00
66627;BME280;53498;50.422;14.912;2023-03-25T03:05:35;98064.59;;;7.58;100.00
66627;BME280;53498;50.422;14.912;2023-03-25T03:27:14;98032.66;;;7.52;100.00
66627;BME280;53498;50.422;14.912;2023-03-25T03:29:54;98029.22;;;7.51;100.00
66627;BME280;53498;50.422;14.912;2023-03-25T03:32:30;98019.72;;;7.59;100.00
66627;BME280;53498;50.422;14.912;2023-03-25T03:35:01;98011.94;;;7.62;100.00
66627;BME280;53498;50.422;14.912;2023-03-25T03:37:38;98012.72;;;7.74;100.00
66627;BME280;53498;50.422;14.912;2023-03-25T03:40:08;98010.06;;;7.84;100.00
66627;BME280;53498;50.422;14.912;2023-03-25T03:42:43;98003.97;;;7.96;100.00
66627;BME280;53498;50.422;14.912;2023-03-25T03:45:24;98001.25;;;8.13;100.00
66627;BME280;53498;50.422;14.912;2023-03-25T03:47:53;98005.50;;;8.22;100.00
66627;BME280;53498;50.422;14.912;2023-03-25T03:50:25;98009.72;;;8.32;100.00
66627;BME280;53498;50.422;14.912;2023-03-25T03:53:02;98025.25;;;8.33;100.00
66627;BME280;53498;50.422;14.912;2023-03-25T03:55:51;98027.00;;;8.34;100.00
66627;BME280;53498;50.422;14.912;2023-03-25T03:58:25;98030.41;;;8.37;100.00
66627;BME280;53498;50.422;14.912;2023-03-25T04:01:10;98033.94;;;8.31;100.00
66627;BME280;53498;50.422;14.912;2023-03-25T04:03:49;98039.09;;;8.40;100.00
66627;BME280;53498;50.422;14.912;2023-03-25T04:06:25;98044.25;;;8.43;100.00
66627;BME280;53498;50.422;14.912;2023-03-25T04:09:02;98051.19;;;8.32;100.00
66627;BME280;53498;50.422;14.912;2023-03-25T04:11:36;98044.28;;;8.32;100.00
66627;BME280;53498;50.422;14.912;2023-03-25T04:14:05;98058.94;;;8.38;100.00
66627;BME280;53498;50.422;14.912;2023-03-25T04:16:32;98043.38;;;8.37;100.00
66627;BME280;53498;50.422;14.912;2023-03-25T04:18:57;98039.94;;;8.38;100.00
66627;BME280;53498;50.422;14.912;2023-03-25T04:21:23;98047.72;;;8.33;100.00
66627;BME280;53498;50.422;14.912;2023-03-25T04:23:50;98051.16;;;8.41;100.00
66627;BME280;53498;50.422;14.912;2023-03-25T04:26:16;98054.59;;;8.43;100.00
66627;BME280;53498;50.422;14.912;2023-03-25T04:28:42;98056.34;;;8.41;100.00
66627;BME280;53498;50.422;14.912;2023-03-25T04:31:12;98058.06;;;8.39;100.00
66627;BME280;53498;50.422;14.912;2023-03-25T04:33:41;98060.66;;;8.44;100.00
66627;BME280;53498;50.422;14.912;2023-03-25T04:36:10;98060.56;;;8.51;100.00
66627;BME280;53498;50.422;14.912;2023-03-25T04:38:36;98064.03;;;8.50;100.00
66627;BME280;53498;50.422;14.912;2023-03-25T04:41:01;98067.53;;;8.45;100.00
66627;BME280;53498;50.422;14.912;2023-03-25T04:43:31;98070.19;;;8.34;100.00
66627;BME280;53498;50.422;14.912;2023-03-25T04:45:57;98069.31;;;8.38;100.00
66627;BME280;53498;50.422;14.912;2023-03-25T04:48:33;98062.38;;;8.35;100.00
66627;BME280;53498;50.422;14.912;2023-03-25T04:51:00;98058.06;;;8.39;100.00
66627;BME280;53498;50.422;14.912;2023-03-25T04:53:28;98069.31;;;8.38;100.00
66627;BME280;53498;50.422;14.912;2023-03-25T04:55:54;98070.16;;;8.37;100.00
66627;BME280;53498;50.422;14.912;2023-03-25T04:58:20;98073.66;;;8.30;100.00
66627;BME280;53498;50.422;14.912;2023-03-25T05:00:49;98074.56;;;8.27;100.00
66627;BME280;53498;50.422;14.912;2023-03-25T05:03:17;98068.50;;;8.28;100.00
66627;BME280;53498;50.422;14.912;2023-03-25T05:05:49;98078.81;;;8.39;100.00
66627;BME280;53498;50.422;14.912;2023-03-25T05:08:14;98081.34;;;8.45;100.00
66627;BME280;53498;50.422;14.912;2023-03-25T05:10:40;98076.94;;;8.58;100.00
66627;BME280;53498;50.422;14.912;2023-03-25T05:13:08;98077.78;;;8.60;100.00
66627;BME280;53498;50.422;14.912;2023-03-25T05:15:35;98079.50;;;8.63;100.00
66627;BME280;53498;50.422;14.912;2023-03-25T05:18:09;98076.88;;;8.64;100.00
66627;BME280;53498;50.422;14.912;2023-03-25T05:20:45;98076.84;;;8.67;100.00
66627;BME280;53498;50.422;14.912;2023-03-25T05:23:12;98073.44;;;8.65;100.00
66627;BME280;53498;50.422;14.912;2023-03-25T05:25:49;98076.13;;;8.51;100.00
66627;BME280;53498;50.422;14.912;2023-03-25T05:28:15;98078.75;;;8.47;100.00
66627;BME280;53498;50.422;14.912;2023-03-25T05:30:43;98072.75;;;8.35;100.00
66627;BME280;53498;50.422;14.912;2023-03-25T05:33:12;98075.34;;;8.37;100.00
66627;BME280;53498;50.422;14.912;2023-03-25T05:35:40;98069.31;;;8.33;100.00
66627;BME280;53498;50.422;14.912;2023-03-25T05:38:13;98077.13;;;8.30;100.00
66627;BME280;53498;50.422;14.912;2023-03-25T05:40:46;98067.59;;;8.34;100.00
66627;BME280;53498;50.422;14.912;2023-03-25T05:43:13;98060.66;;;8.36;100.00
66627;BME280;53498;50.422;14.912;2023-03-25T05:45:42;98069.31;;;8.33;100.00
66627;BME280;53498;50.422;14.912;2023-03-25T05:48:09;98072.75;;;8.43;100.00
66627;BME280;53498;50.422;14.912;2023-03-25T05:50:36;98072.69;;;8.48;100.00
66627;BME280;53498;50.422;14.912;2023-03-25T05:53:03;98072.59;;;8.60;100.00
66627;BME280;53498;50.422;14.912;2023-03-25T05:55:29;98075.09;;;8.72;100.00
66627;BME280;53498;50.422;14.912;2023-03-25T05:57:55;98068.88;;;8.93;100.00
66627;BME280;53498;50.422;14.912;2023-03-25T06:00:21;98079.31;;;8.83;100.00
66627;BME280;53498;50.422;14.912;2023-03-25T06:02:48;98079.28;;;8.86;100.00
66627;BME280;53498;50.422;14.912;2023-03-25T06:05:15;98077.63;;;8.78;100.00
66627;BME280;53498;50.422;14.912;2023-03-25T06:07:42;98076.88;;;8.69;100.00
66627;BME280;53498;50.422;14.912;2023-03-25T06:10:11;98078.28;;;9.03;100.00
66627;BME280;53498;50.422;14.912;2023-03-25T06:12:37;98079.84;;;9.17;100.00
66627;BME280;53498;50.422;14.912;2023-03-25T06:15:07;98078.25;;;9.07;100.00
66627;BME280;53498;50.422;14.912;2023-03-25T06:17:36;98075.47;;;9.25;100.00
66627;BME280;53498;50.422;14.912;2023-03-25T06:20:08;98070.00;;;9.49;100.00
66627;BME280;53498;50.422;14.912;2023-03-25T06:22:39;98079.41;;;9.58;100.00
66627;BME280;53498;50.422;14.912;2023-03-25T06:25:07;98087.19;;;9.60;100.00
66627;BME280;53498;50.422;14.912;2023-03-25T06:27:33;98077.44;;;9.77;100.00
66627;BME280;53498;50.422;14.912;2023-03-25T06:30:00;98085.88;;;9.93;98.67
66627;BME280;53498;50.422;14.912;2023-03-25T06:32:26;98085.72;;;10.07;100.00
66627;BME280;53498;50.422;14.912;2023-03-25T06:34:52;98071.91;;;10.03;97.87
66627;BME280;53498;50.422;14.912;2023-03-25T06:37:17;98080.25;;;10.24;96.12
66627;BME280;53498;50.422;14.912;2023-03-25T06:39:43;98077.22;;;9.92;97.41
66627;BME280;53498;50.422;14.912;2023-03-25T06:42:14;98081.72;;;9.81;97.61
66627;BME280;53498;50.422;14.912;2023-03-25T06:44:39;98092.94;;;9.85;97.65
66627;BME280;53498;50.422;14.912;2023-03-25T06:47:05;98091.22;;;9.81;98.16
66627;BME280;53498;50.422;14.912;2023-03-25T06:49:31;98084.72;;;9.46;97.91
66627;BME280;53498;50.422;14.912;2023-03-25T06:51:57;98088.28;;;9.39;99.63
66627;BME280;53498;50.422;14.912;2023-03-25T06:54:23;98082.28;;;9.31;98.63
66627;BME280;53498;50.422;14.912;2023-03-25T06:56:48;98086.56;;;9.36;99.06
66627;BME280;53498;50.422;14.912;2023-03-25T06:59:14;98090.06;;;9.35;99.36
66627;BME280;53498;50.422;14.912;2023-03-25T07:01:40;98092.63;;;9.38;99.24
66627;BME280;53498;50.422;14.912;2023-03-25T07:04:07;98086.25;;;9.65;99.60
66627;BME280;53498;50.422;14.912;2023-03-25T07:06:32;98084.78;;;10.11;98.60
66627;BME280;53498;50.422;14.912;2023-03-25T07:08:58;98089.22;;;10.03;95.48
66627;BME280;53498;50.422;14.912;2023-03-25T07:11:28;98091.81;;;10.03;94.58
66627;BME280;53498;50.422;14.912;2023-03-25T07:13:55;98094.44;;;10.01;94.02
66627;BME280;53498;50.422;14.912;2023-03-25T07:16:21;98092.09;;;9.84;95.46
66627;BME280;53498;50.422;14.912;2023-03-25T07:18:48;98085.09;;;9.86;95.70
66627;BME280;53498;50.422;14.912;2023-03-25T07:21:15;98094.38;;;10.07;94.10
66627;BME280;53498;50.422;14.912;2023-03-25T07:23:40;98091.88;;;9.98;94.27
66627;BME280;53498;50.422;14.912;2023-03-25T07:26:06;98101.47;;;9.93;92.91
66627;BME280;53498;50.422;14.912;2023-03-25T07:28:32;98104.22;;;9.82;93.12
66627;BME280;53498;50.422;14.912;2023-03-25T07:30:57;98100.72;;;9.83;93.64
66627;BME280;53498;50.422;14.912;2023-03-25T07:33:23;98106.78;;;9.84;93.88
66627;BME280;53498;50.422;14.912;2023-03-25T07:35:49;98099.03;;;9.81;93.10
66627;BME280;53498;50.422;14.912;2023-03-25T07:38:14;98097.03;;;10.00;91.73
66627;BME280;53498;50.422;14.912;2023-03-25T07:40:40;98103.00;;;10.09;91.86
66627;BME280;53498;50.422;14.912;2023-03-25T07:43:05;98107.88;;;10.34;90.02
66627;BME280;53498;50.422;14.912;2023-03-25T07:45:31;98097.41;;;10.38;90.49
66627;BME280;53498;50.422;14.912;2023-03-25T07:47:59;98103.78;;;10.16;89.21
66627;BME280;53498;50.422;14.912;2023-03-25T07:50:25;98104.56;;;10.21;90.95
66627;BME280;53498;50.422;14.912;2023-03-25T07:52:50;98113.16;;;10.25;90.66
66627;BME280;53498;50.422;14.912;2023-03-25T07:55:16;98102.78;;;10.25;88.95
66627;BME280;53498;50.422;14.912;2023-03-25T07:57:42;98110.56;;;10.29;89.75
66627;BME280;53498;50.422;14.912;2023-03-25T08:00:08;98107.09;;;10.26;89.88
66627;BME280;53498;50.422;14.912;2023-03-25T08:02:35;98105.91;;;10.50;90.86
66627;BME280;53498;50.422;14.912;2023-03-25T08:05:01;98083.94;;;10.69;88.30
66627;BME280;53498;50.422;14.912;2023-03-25T08:07:27;98083.41;;;11.00;87.17
66627;BME280;53498;50.422;14.912;2023-03-25T08:09:53;98082.13;;;11.24;85.73
66627;BME280;53498;50.422;14.912;2023-03-25T08:12:19;98097.91;;;11.15;85.04
66627;BME280;53498;50.422;14.912;2023-03-25T08:14:45;98096.22;;;11.12;85.98
66627;BME280;53498;50.422;14.912;2023-03-25T08:17:10;98095.56;;;11.01;85.06
66627;BME280;53498;50.422;14.912;2023-03-25T08:19:36;98103.47;;;10.95;85.19
66627;BME280;53498;50.422;14.912;2023-03-25T08:22:02;98099.25;;;10.86;88.06
66627;BME280;53498;50.422;14.912;2023-03-25T08:24:27;98101.31;;;10.67;90.13
66627;BME280;53498;50.422;14.912;2023-03-25T08:26:54;98109.47;;;10.44;92.68
66627;BME280;53498;50.422;14.912;2023-03-25T08:29:20;98107.19;;;10.19;92.37
66627;BME280;53498;50.422;14.912;2023-03-25T08:31:46;98113.44;;;10.06;94.87
66627;BME280;53498;50.422;14.912;2023-03-25T08:34:33;98111.69;;;10.05;96.03
66627;BME280;53498;50.422;14.912;2023-03-25T08:37:04;98112.72;;;9.95;94.80
66627;BME280;53498;50.422;14.912;2023-03-25T08:39:32;98117.84;;;10.00;94.38
66627;BME280;53498;50.422;14.912;2023-03-25T08:42:01;98108.16;;;10.12;92.44
66627;BME280;53498;50.422;14.912;2023-03-25T08:44:26;98107.19;;;10.19;93.40
66627;BME280;53498;50.422;14.912;2023-03-25T08:46:52;98108.94;;;10.17;92.89
66627;BME280;53498;50.422;14.912;2023-03-25T08:49:18;98114.06;;;10.25;91.42
66627;BME280;53498;50.422;14.912;2023-03-25T08:51:43;98117.53;;;10.21;90.88
66627;BME280;53498;50.422;14.912;2023-03-25T08:54:09;98115.75;;;10.29;91.98
66627;BME280;53498;50.422;14.912;2023-03-25T08:56:34;98103.69;;;10.22;91.10
66627;BME280;53498;50.422;14.912;2023-03-25T08:59:00;98112.09;;;10.42;91.69
66627;BME280;53498;50.422;14.912;2023-03-25T09:01:26;98108.34;;;10.59;89.77
66627;BME280;53498;50.422;14.912;2023-03-25T09:03:51;98110.88;;;10.65;90.39
66627;BME280;53498;50.422;14.912;2023-03-25T09:06:18;98105.56;;;10.73;87.01
66627;BME280;53498;50.422;14.912;2023-03-25T09:08:43;98112.56;;;10.68;88.38
66627;BME280;53498;50.422;14.912;2023-03-25T09:11:09;98107.25;;;10.75;87.20
66627;BME280;53498;50.422;14.912;2023-03-25T09:13:36;98109.72;;;10.84;85.61
66627;BME280;53498;50.422;14.912;2023-03-25T09:16:01;98114.81;;;10.91;87.42
66627;BME280;53498;50.422;14.912;2023-03-25T09:18:27;98109.44;;;11.00;85.07
66627;BME280;53498;50.422;14.912;2023-03-25T09:20:59;98106.63;;;11.12;84.28
66627;BME280;53498;50.422;14.912;2023-03-25T09:23:26;98109.63;;;10.91;85.04
66627;BME280;53498;50.422;14.912;2023-03-25T09:25:51;98107.94;;;10.86;86.74
66627;BME280;53498;50.422;14.912;2023-03-25T09:28:17;98119.44;;;10.72;84.14
66627;BME280;53498;50.422;14.912;2023-03-25T09:30:42;98119.97;;;10.36;89.28
66627;BME280;53498;50.422;14.912;2023-03-25T09:33:08;98119.03;;;9.76;96.93
66627;BME280;53498;50.422;14.912;2023-03-25T09:35:34;98114.81;;;9.64;94.48
66627;BME280;53498;50.422;14.912;2023-03-25T09:38:00;98117.28;;;9.76;94.95
66627;BME280;53498;50.422;14.912;2023-03-25T09:40:25;98116.97;;;10.01;95.31
66627;BME280;53498;50.422;14.912;2023-03-25T09:45:36;98112.84;;;10.49;94.89
66627;BME280;53498;50.422;14.912;2023-03-25T09:50:48;98109.72;;;10.84;91.32
66627;BME280;53498;50.422;14.912;2023-03-25T09:55:59;98114.09;;;11.30;85.34
66627;BME280;53498;50.422;14.912;2023-03-25T09:58:41;98112.22;;;11.39;86.38
66627;BME280;53498;50.422;14.912;2023-03-25T10:01:30;98110.38;;;11.44;86.20
66627;BME280;53498;50.422;14.912;2023-03-25T10:04:24;98124.56;;;11.27;84.69
66627;BME280;53498;50.422;14.912;2023-03-25T10:21:11;98112.63;;;11.64;81.42
66627;BME280;53498;50.422;14.912;2023-03-25T10:29:05;98105.19;;;11.89;77.20
66627;BME280;53498;50.422;14.912;2023-03-25T10:31:35;98102.09;;;11.68;73.18
66627;BME280;53498;50.422;14.912;2023-03-25T10:34:07;98106.63;;;11.12;73.31
66627;BME280;53498;50.422;14.912;2023-03-25T10:36:39;98105.00;;;11.05;77.58
66627;BME280;53498;50.422;14.912;2023-03-25T10:39:13;98101.34;;;11.15;75.88
66627;BME280;53498;50.422;14.912;2023-03-25T10:41:46;98098.69;;;11.18;76.42
66627;BME280;53498;50.422;14.912;2023-03-25T10:44:12;98091.69;;;11.23;78.82
66627;BME280;53498;50.422;14.912;2023-03-25T10:46:45;98093.19;;;11.35;77.87
66627;BME280;53498;50.422;14.912;2023-03-25T10:49:22;98091.63;;;11.26;75.54
66627;BME280;53498;50.422;14.912;2023-03-25T10:51:50;98085.50;;;11.29;76.85
66627;BME280;53498;50.422;14.912;2023-03-25T10:54:35;98089.81;;;11.31;75.67
66627;BME280;53498;50.422;14.912;2023-03-25T10:57:05;98092.56;;;11.22;75.95
66627;BME280;53498;50.422;14.912;2023-03-25T11:02:18;98075.03;;;11.32;74.53
66627;BME280;53498;50.422;14.912;2023-03-25T11:04:46;98084.44;;;11.41;73.10
66627;BME280;53498;50.422;14.912;2023-03-25T11:07:21;98075.91;;;11.74;73.46
66627;BME280;53498;50.422;14.912;2023-03-25T11:09:48;98065.50;;;12.16;71.36
66627;BME280;53498;50.422;14.912;2023-03-25T11:12:20;98066.72;;;12.39;69.57
66627;BME280;53498;50.422;14.912;2023-03-25T11:14:55;98068.06;;;12.18;68.93
66627;BME280;53498;50.422;14.912;2023-03-25T11:17:21;98054.47;;;12.41;66.05
66627;BME280;53498;50.422;14.912;2023-03-25T11:19:58;98057.34;;;12.30;67.56
66627;BME280;53498;50.422;14.912;2023-03-25T11:22:28;98065.84;;;12.01;66.90
66627;BME280;53498;50.422;14.912;2023-03-25T11:25:17;98060.19;;;11.79;67.51
66627;BME280;53498;50.422;14.912;2023-03-25T11:28:08;98055.22;;;12.09;69.59
66627;BME280;53498;50.422;14.912;2023-03-25T11:30:35;98053.84;;;12.31;66.62
66627;BME280;53498;50.422;14.912;2023-03-25T11:33:13;98039.72;;;12.41;64.64
66627;BME280;53498;50.422;14.912;2023-03-25T11:35:42;98046.16;;;12.26;63.07
66627;BME280;53498;50.422;14.912;2023-03-25T11:38:18;98039.00;;;11.97;63.29
66627;BME280;53498;50.422;14.912;2023-03-25T11:40:55;98046.38;;;11.75;64.07
66627;BME280;53498;50.422;14.912;2023-03-25T11:43:24;98030.56;;;11.83;65.45
66627;BME280;53498;50.422;14.912;2023-03-25T11:45:50;98026.72;;;11.59;66.07
66627;BME280;53498;50.422;14.912;2023-03-25T11:48:21;98033.44;;;11.72;66.19
66627;BME280;53498;50.422;14.912;2023-03-25T11:50:53;98040.00;;;11.90;67.87
66627;BME280;53498;50.422;14.912;2023-03-25T11:53:20;98027.91;;;12.25;65.54
66627;BME280;53498;50.422;14.912;2023-03-25T11:55:49;98031.19;;;12.35;65.01
66627;BME280;53498;50.422;14.912;2023-03-25T11:58:26;98024.44;;;12.26;64.50
66627;BME280;53498;50.422;14.912;2023-03-25T12:01:10;98025.28;;;12.62;64.26
66627;BME280;53498;50.422;14.912;2023-03-25T12:03:44;98022.03;;;12.87;64.05
66627;BME280;53498;50.422;14.912;2023-03-25T12:08:52;98025.66;;;12.81;64.56
66627;BME280;53498;50.422;14.912;2023-03-25T12:11:31;98017.44;;;12.62;66.06
66627;BME280;53498;50.422;14.912;2023-03-25T12:19:30;98020.50;;;12.44;60.31
66627;BME280;53498;50.422;14.912;2023-03-25T12:22:11;98004.97;;;12.39;59.53
66627;BME280;53498;50.422;14.912;2023-03-25T12:25:03;98006.38;;;12.54;61.85
66627;BME280;53498;50.422;14.912;2023-03-25T12:27:54;98010.56;;;12.24;62.74
66627;BME280;53498;50.422;14.912;2023-03-25T12:33:20;98002.38;;;12.02;64.82
66627;BME280;53498;50.422;14.912;2023-03-25T12:41:16;97988.50;;;12.01;64.30
66627;BME280;53498;50.422;14.912;2023-03-25T12:52:03;97988.44;;;12.40;63.85
66627;BME280;53498;50.422;14.912;2023-03-25T13:08:23;97966.25;;;12.58;60.92
66627;BME280;53498;50.422;14.912;2023-03-25T13:11:22;97986.44;;;12.50;61.20
66627;BME280;53498;50.422;14.912;2023-03-25T13:13:52;97989.00;;;12.17;62.12
66627;BME280;53498;50.422;14.912;2023-03-25T13:16:23;97984.75;;;12.13;61.76
66627;BME280;53498;50.422;14.912;2023-03-25T13:21:42;97982.28;;;12.44;59.84
66627;BME280;53498;50.422;14.912;2023-03-25T13:24:22;97990.31;;;12.35;61.09
66627;BME280;53498;50.422;14.912;2023-03-25T13:26:50;97974.25;;;12.52;62.46
66627;BME280;53498;50.422;14.912;2023-03-25T13:29:41;97976.28;;;12.73;59.77
66627;BME280;53498;50.422;14.912;2023-03-25T13:32:14;97979.19;;;12.95;60.40
66627;BME280;53498;50.422;14.912;2023-03-25T13:34:50;97970.69;;;13.20;59.23
66627;BME280;53498;50.422;14.912;2023-03-25T13:37:35;97973.56;;;13.09;59.52
66627;BME280;53498;50.422;14.912;2023-03-25T13:42:42;97975.41;;;12.40;59.98
66627;BME280;53498;50.422;14.912;2023-03-25T13:45:21;97976.66;;;12.24;60.92
66627;BME280;53498;50.422;14.912;2023-03-25T13:50:29;97969.56;;;12.65;62.45
66627;BME280;53498;50.422;14.912;2023-03-25T13:53:01;97970.69;;;12.87;61.73
66627;BME280;53498;50.422;14.912;2023-03-25T13:55:33;97966.53;;;12.82;61.22
66627;BME280;53498;50.422;14.912;2023-03-25T14:00:40;97980.41;;;12.12;61.51
66627;BME280;53498;50.422;14.912;2023-03-25T14:06:04;97984.50;;;11.87;64.74
66627;BME280;53498;50.422;14.912;2023-03-25T14:14:02;97993.81;;;11.97;61.45
66627;BME280;53498;50.422;14.912;2023-03-25T14:16:33;97994.44;;;12.08;62.68
66627;BME280;53498;50.422;14.912;2023-03-25T14:19:07;97994.41;;;12.10;64.07
66627;BME280;53498;50.422;14.912;2023-03-25T14:24:12;97979.00;;;11.99;60.37
66627;BME280;53498;50.422;14.912;2023-03-25T14:26:48;97982.66;;;11.92;60.96
66627;BME280;53498;50.422;14.912;2023-03-25T14:29:29;97982.16;;;11.73;61.16
66627;BME280;53498;50.422;14.912;2023-03-25T14:32:05;97983.28;;;11.61;62.83
66627;BME280;53498;50.422;14.912;2023-03-25T14:34:35;97978.97;;;11.60;63.86
66627;BME280;53498;50.422;14.912;2023-03-25T14:42:00;97967.91;;;11.50;63.02
66627;BME280;53498;50.422;14.912;2023-03-25T14:44:29;97972.75;;;11.67;62.86
66627;BME280;53498;50.422;14.912;2023-03-25T14:49:55;97967.88;;;11.91;61.97
66627;BME280;53498;50.422;14.912;2023-03-25T14:52:38;97963.38;;;11.99;61.93
66627;BME280;53498;50.422;14.912;2023-03-25T14:55:09;97968.28;;;12.11;62.19
66627;BME280;53498;50.422;14.912;2023-03-25T14:57:41;97972.59;;;12.12;61.25
66627;BME280;53498;50.422;14.912;2023-03-25T15:00:18;97965.81;;;12.05;61.16
66627;BME280;53498;50.422;14.912;2023-03-25T15:02:51;97976.66;;;11.87;61.28
66627;BME280;53498;50.422;14.912;2023-03-25T15:05:24;97982.78;;;11.84;61.80
66627;BME280;53498;50.422;14.912;2023-03-25T15:08:10;97983.88;;;11.74;61.69
66627;BME280;53498;50.422;14.912;2023-03-25T15:10:41;97981.59;;;11.58;62.71
66627;BME280;53498;50.422;14.912;2023-03-25T15:13:12;97979.06;;;11.55;63.51
66627;BME280;53498;50.422;14.912;2023-03-25T15:18:57;97974.91;;;11.47;63.53
66627;BME280;53498;50.422;14.912;2023-03-25T15:21:11;97973.31;;;11.40;64.34
66627;BME280;53498;50.422;14.912;2023-03-25T15:23:45;97990.81;;;11.33;61.57
66627;BME280;53498;50.422;14.912;2023-03-25T15:26:33;98008.53;;;11.16;62.28
66627;BME280;53498;50.422;14.912;2023-03-25T15:35:32;98044.88;;;9.52;78.74